sensor_id;sensor_type;location;lat;lon;timestamp;pressure;altitude;pressure_sealevel;temperature;humidity
39301;BME280;25019;42.626;23.380;2024-02-23T00:01:36;94082.56;;;4.57;100.00
39301;BME280;25019;42.626;23.380;2024-02-23T00:04:02;94141.84;;;4.97;100.00
39301;BME280;25019;42.626;23.380;2024-02-23T00:06:28;94125.19;;;4.85;100.00
39301;BME280;25019;42.626;23.380;2024-02-23T00:08:54;94083.75;;;4.61;99.87
39301;BME280;25019;42.626;23.380;2024-02-23T00:11:21;94156.13;;;5.08;100.00
39301;BME280;25019;42.626;23.380;2024-02-23T00:13:47;94152.97;;;4.99;100.00
39301;BME280;25019;42.626;23.380;2024-02-23T00:16:12;94080.09;;;4.44;100.00
39301;BME280;25019;42.626;23.380;2024-02-23T00:18:38;94087.09;;;4.50;99.50
39301;BME280;25019;42.626;23.380;2024-02-23T00:21:04;94119.13;;;4.65;99.85
39301;BME280;25019;42.626;23.380;2024-02-23T00:23:30;94077.00;;;4.47;99.81
39301;BME280;25019;42.626;23.380;2024-02-23T00:25:55;94160.72;;;4.94;100.00
39301;BME280;25019;42.626;23.380;2024-02-23T00:28:21;94122.19;;;4.62;99.27
39301;BME280;25019;42.626;23.380;2024-02-23T00:30:47;94148.22;;;4.71;100.00
39301;BME280;25019;42.626;23.380;2024-02-23T00:33:13;94128.69;;;4.60;99.87
39301;BME280;25019;42.626;23.380;2024-02-23T00:35:39;94134.75;;;4.60;99.47
39301;BME280;25019;42.626;23.380;2024-02-23T00:38:04;94178.63;;;4.85;100.00
39301;BME280;25019;42.626;23.380;2024-02-23T00:40:30;94160.56;;;4.89;99.81
39301;BME280;25019;42.626;23.380;2024-02-23T00:42:56;94128.22;;;4.63;100.00
39301;BME280;25019;42.626;23.380;2024-02-23T00:45:22;94152.88;;;4.69;100.00
39301;BME280;25019;42.626;23.380;2024-02-23T00:47:48;94166.56;;;4.77;100.00
39301;BME280;25019;42.626;23.380;2024-02-23T00:50:14;94157.84;;;4.77;100.00
39301;BME280;25019;42.626;23.380;2024-02-23T00:52:39;94081.75;;;4.38;99.69
39301;BME280;25019;42.626;23.380;2024-02-23T00:55:06;94120.72;;;4.67;100.00
39301;BME280;25019;42.626;23.380;2024-02-23T00:57:34;94023.88;;;4.01;100.00
39301;BME280;25019;42.626;23.380;2024-02-23T01:00:01;94152.75;;;4.82;99.85
39301;BME280;25019;42.626;23.380;2024-02-23T01:02:28;94066.63;;;4.33;100.00
39301;BME280;25019;42.626;23.380;2024-02-23T01:04:55;94029.66;;;4.10;99.76
39301;BME280;25019;42.626;23.380;2024-02-23T01:07:22;94124.47;;;4.77;99.90
39301;BME280;25019;42.626;23.380;2024-02-23T01:09:48;94073.81;;;4.45;99.62
39301;BME280;25019;42.626;23.380;2024-02-23T01:12:14;94127.25;;;4.83;100.00
39301;BME280;25019;42.626;23.380;2024-02-23T01:14:40;94060.94;;;4.37;99.97
39301;BME280;25019;42.626;23.380;2024-02-23T01:17:06;94094.19;;;4.49;100.00
39301;BME280;25019;42.626;23.380;2024-02-23T01:19:31;94131.41;;;4.72;100.00
39301;BME280;25019;42.626;23.380;2024-02-23T01:21:57;94148.06;;;4.84;100.00
39301;BME280;25019;42.626;23.380;2024-02-23T01:24:26;94135.50;;;4.86;100.00
39301;BME280;25019;42.626;23.380;2024-02-23T01:26:56;94062.16;;;4.34;100.00
39301;BME280;25019;42.626;23.380;2024-02-23T01:29:25;94018.66;;;3.94;100.00
39301;BME280;25019;42.626;23.380;2024-02-23T01:31:50;94104.34;;;4.46;100.00
39301;BME280;25019;42.626;23.380;2024-02-23T01:34:17;94119.13;;;4.65;100.00
39301;BME280;25019;42.626;23.380;2024-02-23T01:36:43;94106.03;;;4.59;100.00
39301;BME280;25019;42.626;23.380;2024-02-23T01:39:09;94036.81;;;4.21;100.00
39301;BME280;25019;42.626;23.380;2024-02-23T01:41:35;94070.09;;;4.53;100.00
39301;BME280;25019;42.626;23.380;2024-02-23T01:44:01;94114.38;;;4.74;100.00
39301;BME280;25019;42.626;23.380;2024-02-23T01:46:27;94083.06;;;4.47;100.00
39301;BME280;25019;42.626;23.380;2024-02-23T01:48:53;94110.72;;;4.75;100.00
39301;BME280;25019;42.626;23.380;2024-02-23T01:51:19;94128.69;;;4.78;100.00
39301;BME280;25019;42.626;23.380;2024-02-23T01:53:46;94116.13;;;4.80;100.00
39301;BME280;25019;42.626;23.380;2024-02-23T01:56:13;93981.88;;;3.94;100.00
39301;BME280;25019;42.626;23.380;2024-02-23T01:58:43;94092.53;;;4.74;100.00
39301;BME280;25019;42.626;23.380;2024-02-23T02:01:12;94032.22;;;4.35;100.00
39301;BME280;25019;42.626;23.380;2024-02-23T02:03:38;93956.69;;;3.86;99.96
39301;BME280;25019;42.626;23.380;2024-02-23T02:06:09;93973.28;;;4.05;100.00
39301;BME280;25019;42.626;23.380;2024-02-23T02:08:36;93998.69;;;4.30;100.00
39301;BME280;25019;42.626;23.380;2024-02-23T02:11:02;94078.28;;;4.82;100.00
39301;BME280;25019;42.626;23.380;2024-02-23T02:13:29;93840.78;;;3.20;99.88
39301;BME280;25019;42.626;23.380;2024-02-23T02:15:56;94022.44;;;4.42;100.00
39301;BME280;25019;42.626;23.380;2024-02-23T02:18:22;94038.97;;;4.49;99.86
39301;BME280;25019;42.626;23.380;2024-02-23T02:20:53;94055.47;;;4.57;100.00
39301;BME280;25019;42.626;23.380;2024-02-23T02:23:20;93969.28;;;4.03;99.36
39301;BME280;25019;42.626;23.380;2024-02-23T02:25:52;94038.03;;;4.44;99.55
39301;BME280;25019;42.626;23.380;2024-02-23T02:28:18;94064.44;;;4.49;99.62
39301;BME280;25019;42.626;23.380;2024-02-23T02:30:44;94095.94;;;4.74;99.32
39301;BME280;25019;42.626;23.380;2024-02-23T02:33:10;94097.78;;;4.74;99.89
39301;BME280;25019;42.626;23.380;2024-02-23T02:35:35;94012.00;;;4.17;99.67
39301;BME280;25019;42.626;23.380;2024-02-23T02:38:01;94046.53;;;4.39;99.70
39301;BME280;25019;42.626;23.380;2024-02-23T02:40:27;94053.78;;;4.44;99.71
39301;BME280;25019;42.626;23.380;2024-02-23T02:42:52;94098.59;;;4.74;99.70
39301;BME280;25019;42.626;23.380;2024-02-23T02:45:18;94001.50;;;4.17;99.61
39301;BME280;25019;42.626;23.380;2024-02-23T02:47:44;94051.38;;;4.42;99.64
39301;BME280;25019;42.626;23.380;2024-02-23T02:50:09;94090.19;;;4.65;99.94
39301;BME280;25019;42.626;23.380;2024-02-23T02:52:35;94055.16;;;4.46;100.00
39301;BME280;25019;42.626;23.380;2024-02-23T02:55:01;93974.66;;;3.89;100.00
39301;BME280;25019;42.626;23.380;2024-02-23T02:57:27;93985.75;;;3.92;100.00
39301;BME280;25019;42.626;23.380;2024-02-23T02:59:53;94094.03;;;4.63;100.00
39301;BME280;25019;42.626;23.380;2024-02-23T03:02:18;94103.03;;;4.55;100.00
39301;BME280;25019;42.626;23.380;2024-02-23T03:04:48;94092.50;;;4.55;100.00
39301;BME280;25019;42.626;23.380;2024-02-23T03:07:15;94032.28;;;4.28;100.00
39301;BME280;25019;42.626;23.380;2024-02-23T03:09:41;93992.78;;;3.98;100.00
39301;BME280;25019;42.626;23.380;2024-02-23T03:12:08;94048.38;;;4.39;100.00
39301;BME280;25019;42.626;23.380;2024-02-23T03:14:34;94060.88;;;4.43;100.00
39301;BME280;25019;42.626;23.380;2024-02-23T03:17:00;94086.59;;;4.60;99.97
39301;BME280;25019;42.626;23.380;2024-02-23T03:19:25;94083.22;;;4.53;100.00
39301;BME280;25019;42.626;23.380;2024-02-23T03:21:51;93987.03;;;3.82;100.00
39301;BME280;25019;42.626;23.380;2024-02-23T03:24:17;94036.28;;;4.12;100.00
39301;BME280;25019;42.626;23.380;2024-02-23T03:26:43;94098.59;;;4.56;100.00
39301;BME280;25019;42.626;23.380;2024-02-23T03:29:09;94021.84;;;4.03;100.00
39301;BME280;25019;42.626;23.380;2024-02-23T03:31:35;94107.78;;;4.65;100.00
39301;BME280;25019;42.626;23.380;2024-02-23T03:34:02;94085.44;;;4.56;100.00
39301;BME280;25019;42.626;23.380;2024-02-23T03:36:28;94080.38;;;4.54;100.00
39301;BME280;25019;42.626;23.380;2024-02-23T03:38:53;94086.88;;;4.52;100.00
39301;BME280;25019;42.626;23.380;2024-02-23T03:41:19;94115.53;;;4.60;100.00
39301;BME280;25019;42.626;23.380;2024-02-23T03:43:45;94087.09;;;4.50;100.00
39301;BME280;25019;42.626;23.380;2024-02-23T03:46:11;94105.22;;;4.58;100.00
39301;BME280;25019;42.626;23.380;2024-02-23T03:48:37;93930.16;;;3.51;100.00
39301;BME280;25019;42.626;23.380;2024-02-23T03:51:04;94075.84;;;4.43;100.00
39301;BME280;25019;42.626;23.380;2024-02-23T03:53:30;94060.78;;;4.31;100.00
39301;BME280;25019;42.626;23.380;2024-02-23T03:55:59;94117.28;;;4.66;100.00
39301;BME280;25019;42.626;23.380;2024-02-23T03:58:24;94103.69;;;4.50;100.00
39301;BME280;25019;42.626;23.380;2024-02-23T04:00:51;94058.22;;;4.25;100.00
39301;BME280;25019;42.626;23.380;2024-02-23T04:03:17;93921.16;;;3.40;100.00
39301;BME280;25019;42.626;23.380;2024-02-23T04:05:42;93893.25;;;3.20;100.00
39301;BME280;25019;42.626;23.380;2024-02-23T04:08:08;93973.59;;;3.72;100.00
39301;BME280;25019;42.626;23.380;2024-02-23T04:10:34;94114.28;;;4.62;100.00
39301;BME280;25019;42.626;23.380;2024-02-23T04:13:00;94037.97;;;4.07;100.00
39301;BME280;25019;42.626;23.380;2024-02-23T04:15:28;94068.66;;;4.31;100.00
39301;BME280;25019;42.626;23.380;2024-02-23T04:17:53;93993.91;;;3.83;100.00
39301;BME280;25019;42.626;23.380;2024-02-23T04:20:19;94043.91;;;4.20;100.00
39301;BME280;25019;42.626;23.380;2024-02-23T04:22:45;94099.13;;;4.39;100.00
39301;BME280;25019;42.626;23.380;2024-02-23T04:25:11;94116.00;;;4.50;100.00
39301;BME280;25019;42.626;23.380;2024-02-23T04:27:37;94043.06;;;4.01;100.00
39301;BME280;25019;42.626;23.380;2024-02-23T04:30:04;93935.06;;;3.40;100.00
39301;BME280;25019;42.626;23.380;2024-02-23T04:32:29;94040.50;;;3.95;100.00
39301;BME280;25019;42.626;23.380;2024-02-23T04:34:56;94109.13;;;4.30;100.00
39301;BME280;25019;42.626;23.380;2024-02-23T04:37:22;93919.34;;;3.15;100.00
39301;BME280;25019;42.626;23.380;2024-02-23T04:39:48;94129.66;;;4.40;100.00
39301;BME280;25019;42.626;23.380;2024-02-23T04:42:13;94045.66;;;3.83;100.00
39301;BME280;25019;42.626;23.380;2024-02-23T04:44:41;94017.50;;;3.65;100.00
39301;BME280;25019;42.626;23.380;2024-02-23T04:47:07;94110.97;;;4.30;100.00
39301;BME280;25019;42.626;23.380;2024-02-23T04:49:33;94098.16;;;4.15;100.00
39301;BME280;25019;42.626;23.380;2024-02-23T04:51:59;94131.09;;;4.36;100.00
39301;BME280;25019;42.626;23.380;2024-02-23T04:54:24;94106.75;;;4.22;100.00
39301;BME280;25019;42.626;23.380;2024-02-23T04:56:50;93900.53;;;2.93;100.00
39301;BME280;25019;42.626;23.380;2024-02-23T04:59:16;94119.28;;;4.27;100.00
39301;BME280;25019;42.626;23.380;2024-02-23T05:01:42;94005.53;;;3.43;100.00
39301;BME280;25019;42.626;23.380;2024-02-23T05:04:08;93944.53;;;2.91;100.00
39301;BME280;25019;42.626;23.380;2024-02-23T05:06:34;94041.97;;;3.58;100.00
39301;BME280;25019;42.626;23.380;2024-02-23T05:09:01;94037.97;;;3.56;100.00
39301;BME280;25019;42.626;23.380;2024-02-23T05:11:29;94088.22;;;3.92;100.00
39301;BME280;25019;42.626;23.380;2024-02-23T05:13:54;94083.38;;;3.88;100.00
39301;BME280;25019;42.626;23.380;2024-02-23T05:16:20;94136.59;;;4.09;100.00
39301;BME280;25019;42.626;23.380;2024-02-23T05:18:46;94136.66;;;4.02;100.00
39301;BME280;25019;42.626;23.380;2024-02-23T05:21:14;94057.03;;;3.44;100.00
39301;BME280;25019;42.626;23.380;2024-02-23T05:23:40;94156.00;;;4.08;100.00
39301;BME280;25019;42.626;23.380;2024-02-23T05:26:07;94095.81;;;3.74;100.00
39301;BME280;25019;42.626;23.380;2024-02-23T05:28:33;94072.00;;;3.69;100.00
39301;BME280;25019;42.626;23.380;2024-02-23T05:30:58;93993.81;;;3.14;100.00
39301;BME280;25019;42.626;23.380;2024-02-23T05:33:24;94091.53;;;3.80;100.00
39301;BME280;25019;42.626;23.380;2024-02-23T05:35:50;94083.03;;;3.85;100.00
39301;BME280;25019;42.626;23.380;2024-02-23T05:38:16;94161.34;;;4.27;100.00
39301;BME280;25019;42.626;23.380;2024-02-23T05:40:42;94140.94;;;4.22;100.00
39301;BME280;25019;42.626;23.380;2024-02-23T05:43:08;94082.38;;;3.89;100.00
39301;BME280;25019;42.626;23.380;2024-02-23T05:45:34;94064.41;;;3.86;100.00
39301;BME280;25019;42.626;23.380;2024-02-23T05:48:00;94121.50;;;4.23;100.00
39301;BME280;25019;42.626;23.380;2024-02-23T05:50:26;94057.38;;;3.80;100.00
39301;BME280;25019;42.626;23.380;2024-02-23T05:52:52;94086.94;;;4.01;100.00
39301;BME280;25019;42.626;23.380;2024-02-23T05:55:19;94120.91;;;4.21;100.00
39301;BME280;25019;42.626;23.380;2024-02-23T05:57:44;94160.88;;;4.55;100.00
39301;BME280;25019;42.626;23.380;2024-02-23T06:00:11;94115.34;;;4.36;100.00
39301;BME280;25019;42.626;23.380;2024-02-23T06:02:38;94154.06;;;4.73;100.00
39301;BME280;25019;42.626;23.380;2024-02-23T06:05:04;94092.31;;;4.31;100.00
39301;BME280;25019;42.626;23.380;2024-02-23T06:07:33;94177.09;;;4.96;100.00
39301;BME280;25019;42.626;23.380;2024-02-23T06:10:00;94052.97;;;4.25;100.00
39301;BME280;25019;42.626;23.380;2024-02-23T06:12:26;94182.22;;;5.09;100.00
39301;BME280;25019;42.626;23.380;2024-02-23T06:14:52;94139.38;;;4.84;100.00
39301;BME280;25019;42.626;23.380;2024-02-23T06:17:18;94080.19;;;4.56;100.00
39301;BME280;25019;42.626;23.380;2024-02-23T06:19:44;94062.13;;;4.41;99.11
39301;BME280;25019;42.626;23.380;2024-02-23T06:22:10;94166.59;;;5.15;98.92
39301;BME280;25019;42.626;23.380;2024-02-23T06:24:37;94101.28;;;4.68;98.79
39301;BME280;25019;42.626;23.380;2024-02-23T06:27:03;94159.47;;;5.15;98.91
39301;BME280;25019;42.626;23.380;2024-02-23T06:29:29;94199.41;;;5.49;98.51
39301;BME280;25019;42.626;23.380;2024-02-23T06:31:55;94093.09;;;4.94;97.44
39301;BME280;25019;42.626;23.380;2024-02-23T06:34:21;94033.91;;;4.67;97.78
39301;BME280;25019;42.626;23.380;2024-02-23T06:36:47;94170.63;;;5.66;96.03
39301;BME280;25019;42.626;23.380;2024-02-23T06:39:13;94190.63;;;5.86;96.22
39301;BME280;25019;42.626;23.380;2024-02-23T06:41:39;94192.38;;;5.92;96.06
39301;BME280;25019;42.626;23.380;2024-02-23T06:44:05;94203.91;;;6.10;96.18
39301;BME280;25019;42.626;23.380;2024-02-23T06:46:31;94136.53;;;5.83;95.36
39301;BME280;25019;42.626;23.380;2024-02-23T06:48:56;94198.69;;;6.34;93.06
39301;BME280;25019;42.626;23.380;2024-02-23T06:51:22;94164.75;;;6.25;92.91
39301;BME280;25019;42.626;23.380;2024-02-23T06:53:48;94126.44;;;6.11;91.78
39301;BME280;25019;42.626;23.380;2024-02-23T06:56:13;94092.09;;;5.87;91.19
39301;BME280;25019;42.626;23.380;2024-02-23T06:58:39;94018.38;;;5.57;89.78
39301;BME280;25019;42.626;23.380;2024-02-23T07:01:05;94118.53;;;6.35;88.79
39301;BME280;25019;42.626;23.380;2024-02-23T07:03:33;94186.38;;;6.94;88.88
39301;BME280;25019;42.626;23.380;2024-02-23T07:06:00;94145.41;;;6.67;87.78
39301;BME280;25019;42.626;23.380;2024-02-23T07:08:26;94172.00;;;7.01;87.25
39301;BME280;25019;42.626;23.380;2024-02-23T07:10:52;94200.13;;;7.08;86.48
39301;BME280;25019;42.626;23.380;2024-02-23T07:13:17;94182.47;;;7.08;86.51
39301;BME280;25019;42.626;23.380;2024-02-23T07:15:45;94197.94;;;7.16;86.16
39301;BME280;25019;42.626;23.380;2024-02-23T07:18:11;94067.50;;;6.29;86.41
39301;BME280;25019;42.626;23.380;2024-02-23T07:20:40;94119.94;;;6.73;86.49
39301;BME280;25019;42.626;23.380;2024-02-23T07:23:09;94109.97;;;6.63;86.74
39301;BME280;25019;42.626;23.380;2024-02-23T07:25:35;94193.91;;;7.26;87.51
39301;BME280;25019;42.626;23.380;2024-02-23T07:28:00;94188.97;;;7.17;87.09
39301;BME280;25019;42.626;23.380;2024-02-23T07:30:26;94185.09;;;7.20;86.96
39301;BME280;25019;42.626;23.380;2024-02-23T07:32:52;94114.50;;;6.92;86.34
39301;BME280;25019;42.626;23.380;2024-02-23T07:35:18;94112.22;;;6.95;85.79
39301;BME280;25019;42.626;23.380;2024-02-23T07:37:43;94170.47;;;7.29;85.81
39301;BME280;25019;42.626;23.380;2024-02-23T07:40:09;94189.31;;;7.33;86.35
39301;BME280;25019;42.626;23.380;2024-02-23T07:42:35;94160.16;;;7.16;86.65
39301;BME280;25019;42.626;23.380;2024-02-23T07:45:03;94147.56;;;7.06;86.79
39301;BME280;25019;42.626;23.380;2024-02-23T07:47:32;94132.97;;;6.92;87.13
39301;BME280;25019;42.626;23.380;2024-02-23T07:49:58;94104.78;;;6.68;87.68
39301;BME280;25019;42.626;23.380;2024-02-23T07:52:24;94202.84;;;7.37;88.22
39301;BME280;25019;42.626;23.380;2024-02-23T07:54:53;94194.13;;;7.36;89.28
39301;BME280;25019;42.626;23.380;2024-02-23T07:57:19;94103.28;;;6.72;89.95
39301;BME280;25019;42.626;23.380;2024-02-23T07:59:46;94169.34;;;7.01;91.80
39301;BME280;25019;42.626;23.380;2024-02-23T08:02:12;94138.97;;;6.87;91.72
39301;BME280;25019;42.626;23.380;2024-02-23T08:04:38;94151.66;;;7.14;92.11
39301;BME280;25019;42.626;23.380;2024-02-23T08:07:04;94179.19;;;7.42;92.31
39301;BME280;25019;42.626;23.380;2024-02-23T08:09:29;94184.75;;;7.57;91.75
39301;BME280;25019;42.626;23.380;2024-02-23T08:11:55;94132.59;;;7.24;91.98
39301;BME280;25019;42.626;23.380;2024-02-23T08:14:21;94191.19;;;7.61;93.36
39301;BME280;25019;42.626;23.380;2024-02-23T08:16:47;94185.56;;;7.58;93.84
39301;BME280;25019;42.626;23.380;2024-02-23T08:19:13;94181.28;;;7.69;93.58
39301;BME280;25019;42.626;23.380;2024-02-23T08:21:38;94186.22;;;7.77;92.06
39301;BME280;25019;42.626;23.380;2024-02-23T08:24:05;94125.16;;;7.49;91.39
39301;BME280;25019;42.626;23.380;2024-02-23T08:26:30;94189.59;;;7.89;91.51
39301;BME280;25019;42.626;23.380;2024-02-23T08:28:56;94185.69;;;7.92;89.88
39301;BME280;25019;42.626;23.380;2024-02-23T08:31:21;94111.00;;;7.56;88.29
39301;BME280;25019;42.626;23.380;2024-02-23T08:33:47;94171.53;;;8.15;88.15
39301;BME280;25019;42.626;23.380;2024-02-23T08:36:13;94176.38;;;8.35;87.73
39301;BME280;25019;42.626;23.380;2024-02-23T08:38:39;94175.47;;;8.59;86.84
39301;BME280;25019;42.626;23.380;2024-02-23T08:41:04;94089.44;;;8.27;85.22
39301;BME280;25019;42.626;23.380;2024-02-23T08:43:30;94177.94;;;8.82;83.33
39301;BME280;25019;42.626;23.380;2024-02-23T08:45:55;94143.28;;;8.67;82.44
39301;BME280;25019;42.626;23.380;2024-02-23T08:48:21;94162.84;;;8.66;82.82
39301;BME280;25019;42.626;23.380;2024-02-23T08:50:47;94097.94;;;8.29;82.39
39301;BME280;25019;42.626;23.380;2024-02-23T08:53:12;94169.03;;;8.89;81.63
39301;BME280;25019;42.626;23.380;2024-02-23T08:55:38;94127.94;;;8.69;81.30
39301;BME280;25019;42.626;23.380;2024-02-23T08:58:04;94106.28;;;8.72;80.96
39301;BME280;25019;42.626;23.380;2024-02-23T09:00:31;94151.53;;;9.10;81.11
39301;BME280;25019;42.626;23.380;2024-02-23T09:02:57;94170.69;;;9.34;81.34
39301;BME280;25019;42.626;23.380;2024-02-23T09:05:23;94034.84;;;8.55;81.55
39301;BME280;25019;42.626;23.380;2024-02-23T09:07:49;94162.25;;;9.59;79.80
39301;BME280;25019;42.626;23.380;2024-02-23T09:10:14;94112.69;;;9.38;79.76
39301;BME280;25019;42.626;23.380;2024-02-23T09:12:40;94049.25;;;9.04;79.11
39301;BME280;25019;42.626;23.380;2024-02-23T09:15:06;94154.97;;;9.99;78.76
39301;BME280;25019;42.626;23.380;2024-02-23T09:17:33;94094.41;;;9.64;76.92
39301;BME280;25019;42.626;23.380;2024-02-23T09:19:58;94115.38;;;9.93;75.80
39301;BME280;25019;42.626;23.380;2024-02-23T09:22:24;94069.03;;;9.73;75.71
39301;BME280;25019;42.626;23.380;2024-02-23T09:24:50;94024.16;;;9.66;74.22
39301;BME280;25019;42.626;23.380;2024-02-23T09:27:16;94160.81;;;10.56;73.59
39301;BME280;25019;42.626;23.380;2024-02-23T09:29:41;94094.38;;;10.18;70.34
39301;BME280;25019;42.626;23.380;2024-02-23T09:32:07;93993.34;;;9.60;68.99
39301;BME280;25019;42.626;23.380;2024-02-23T09:34:33;94150.59;;;10.75;68.92
39301;BME280;25019;42.626;23.380;2024-02-23T09:36:59;94143.16;;;10.72;68.66
39301;BME280;25019;42.626;23.380;2024-02-23T09:39:25;94023.63;;;9.97;68.69
39301;BME280;25019;42.626;23.380;2024-02-23T09:41:56;94113.72;;;10.46;68.38
39301;BME280;25019;42.626;23.380;2024-02-23T09:44:22;94026.28;;;9.97;67.99
39301;BME280;25019;42.626;23.380;2024-02-23T09:46:48;94164.22;;;10.89;67.64
39301;BME280;25019;42.626;23.380;2024-02-23T09:49:15;94138.53;;;10.62;67.99
39301;BME280;25019;42.626;23.380;2024-02-23T09:51:42;94120.34;;;10.44;67.24
39301;BME280;25019;42.626;23.380;2024-02-23T09:54:09;94164.97;;;10.79;67.03
39301;BME280;25019;42.626;23.380;2024-02-23T09:56:34;94099.41;;;10.47;67.10
39301;BME280;25019;42.626;23.380;2024-02-23T09:59:03;94129.69;;;10.84;67.06
39301;BME280;25019;42.626;23.380;2024-02-23T10:01:31;94142.31;;;11.15;66.89
39301;BME280;25019;42.626;23.380;2024-02-23T10:04:00;94140.25;;;11.22;65.27
39301;BME280;25019;42.626;23.380;2024-02-23T10:06:26;94131.25;;;11.33;62.40
39301;BME280;25019;42.626;23.380;2024-02-23T10:08:52;94079.31;;;11.15;62.12
39301;BME280;25019;42.626;23.380;2024-02-23T10:11:21;94116.19;;;11.60;60.93
39301;BME280;25019;42.626;23.380;2024-02-23T10:13:48;94139.69;;;11.83;60.60
39301;BME280;25019;42.626;23.380;2024-02-23T10:16:21;94128.22;;;11.88;60.06
39301;BME280;25019;42.626;23.380;2024-02-23T10:18:48;94066.97;;;11.57;61.35
39301;BME280;25019;42.626;23.380;2024-02-23T10:21:15;94121.38;;;12.03;61.28
39301;BME280;25019;42.626;23.380;2024-02-23T10:23:41;94044.91;;;11.57;60.83
39301;BME280;25019;42.626;23.380;2024-02-23T10:26:08;94115.25;;;12.02;60.59
39301;BME280;25019;42.626;23.380;2024-02-23T10:28:37;94115.56;;;12.11;60.92
39301;BME280;25019;42.626;23.380;2024-02-23T10:31:04;94122.47;;;12.27;59.83
39301;BME280;25019;42.626;23.380;2024-02-23T10:33:30;94108.91;;;12.39;59.42
39301;BME280;25019;42.626;23.380;2024-02-23T10:35:57;94103.03;;;12.42;58.15
39301;BME280;25019;42.626;23.380;2024-02-23T10:38:24;94108.34;;;12.58;55.54
39301;BME280;25019;42.626;23.380;2024-02-23T10:40:57;94101.19;;;12.64;55.66
39301;BME280;25019;42.626;23.380;2024-02-23T10:43:30;94011.72;;;12.16;56.08
39301;BME280;25019;42.626;23.380;2024-02-23T10:45:57;94097.16;;;12.77;55.26
39301;BME280;25019;42.626;23.380;2024-02-23T10:48:23;94077.44;;;12.78;55.86
39301;BME280;25019;42.626;23.380;2024-02-23T10:50:50;94029.53;;;12.41;55.15
39301;BME280;25019;42.626;23.380;2024-02-23T10:53:16;94093.97;;;12.69;55.33
39301;BME280;25019;42.626;23.380;2024-02-23T10:55:43;94093.41;;;12.83;54.65
39301;BME280;25019;42.626;23.380;2024-02-23T10:58:10;94096.88;;;12.73;54.23
39301;BME280;25019;42.626;23.380;2024-02-23T11:00:38;94088.88;;;12.88;53.56
39301;BME280;25019;42.626;23.380;2024-02-23T11:03:05;94066.75;;;12.88;53.17
39301;BME280;25019;42.626;23.380;2024-02-23T11:05:33;94042.81;;;12.78;53.46
39301;BME280;25019;42.626;23.380;2024-02-23T11:07:59;94044.34;;;12.89;53.56
39301;BME280;25019;42.626;23.380;2024-02-23T11:10:25;94070.75;;;12.96;53.02
39301;BME280;25019;42.626;23.380;2024-02-23T11:13:07;94066.66;;;13.14;52.05
39301;BME280;25019;42.626;23.380;2024-02-23T11:15:33;94062.13;;;13.19;51.14
39301;BME280;25019;42.626;23.380;2024-02-23T11:18:21;94057.88;;;13.18;51.92
39301;BME280;25019;42.626;23.380;2024-02-23T11:20:58;94008.09;;;12.93;52.43
39301;BME280;25019;42.626;23.380;2024-02-23T11:23:24;94044.53;;;13.13;52.40
39301;BME280;25019;42.626;23.380;2024-02-23T11:28:28;93971.41;;;12.74;52.80
39301;BME280;25019;42.626;23.380;2024-02-23T11:30:54;94034.63;;;13.24;53.32
39301;BME280;25019;42.626;23.380;2024-02-23T11:33:26;94047.13;;;13.29;52.92
39301;BME280;25019;42.626;23.380;2024-02-23T11:35:52;93991.78;;;13.05;52.68
39301;BME280;25019;42.626;23.380;2024-02-23T11:38:18;94011.38;;;13.35;52.52
39301;BME280;25019;42.626;23.380;2024-02-23T11:40:48;94009.16;;;13.53;52.52
39301;BME280;25019;42.626;23.380;2024-02-23T11:43:13;94034.69;;;13.69;52.50
39301;BME280;25019;42.626;23.380;2024-02-23T11:45:40;94035.44;;;13.80;51.89
39301;BME280;25019;42.626;23.380;2024-02-23T11:48:07;94035.31;;;13.96;51.97
39301;BME280;25019;42.626;23.380;2024-02-23T11:50:33;94023.31;;;13.93;52.32
39301;BME280;25019;42.626;23.380;2024-02-23T11:52:59;94019.06;;;13.92;51.60
39301;BME280;25019;42.626;23.380;2024-02-23T11:55:26;94004.56;;;14.03;52.40
39301;BME280;25019;42.626;23.380;2024-02-23T11:57:52;94021.50;;;14.23;49.79
39301;BME280;25019;42.626;23.380;2024-02-23T12:00:18;93947.59;;;13.84;48.77
39301;BME280;25019;42.626;23.380;2024-02-23T12:02:44;94015.34;;;14.22;48.67
39301;BME280;25019;42.626;23.380;2024-02-23T12:05:14;94015.56;;;14.31;48.77
39301;BME280;25019;42.626;23.380;2024-02-23T12:07:40;93980.69;;;14.17;48.54
39301;BME280;25019;42.626;23.380;2024-02-23T12:10:06;94012.88;;;14.31;48.82
39301;BME280;25019;42.626;23.380;2024-02-23T12:12:32;93979.13;;;14.11;49.33
39301;BME280;25019;42.626;23.380;2024-02-23T12:14:59;94012.38;;;14.29;50.02
39301;BME280;25019;42.626;23.380;2024-02-23T12:17:26;94026.09;;;14.17;50.60
39301;BME280;25019;42.626;23.380;2024-02-23T12:20:02;93947.91;;;13.77;49.82
39301;BME280;25019;42.626;23.380;2024-02-23T12:22:28;93987.19;;;14.06;49.38
39301;BME280;25019;42.626;23.380;2024-02-23T12:24:58;93951.28;;;13.88;48.94
39301;BME280;25019;42.626;23.380;2024-02-23T12:27:24;93978.28;;;13.86;49.22
39301;BME280;25019;42.626;23.380;2024-02-23T12:29:54;93995.19;;;14.06;49.12
39301;BME280;25019;42.626;23.380;2024-02-23T12:32:20;93993.53;;;14.15;49.97
39301;BME280;25019;42.626;23.380;2024-02-23T12:34:47;93974.13;;;14.04;50.90
39301;BME280;25019;42.626;23.380;2024-02-23T12:37:16;93981.22;;;14.19;51.23
39301;BME280;25019;42.626;23.380;2024-02-23T12:39:43;93957.69;;;13.87;51.50
39301;BME280;25019;42.626;23.380;2024-02-23T12:42:09;93958.94;;;14.00;51.38
39301;BME280;25019;42.626;23.380;2024-02-23T12:44:34;93965.63;;;13.97;51.61
39301;BME280;25019;42.626;23.380;2024-02-23T12:47:00;93965.44;;;13.88;51.55
39301;BME280;25019;42.626;23.380;2024-02-23T12:49:26;93949.19;;;13.85;51.84
39301;BME280;25019;42.626;23.380;2024-02-23T12:51:52;93947.84;;;13.87;51.50